Time;durP1;ratioP1;P1;durP2;ratioP2;P2;SDS_P1;SDS_P2;PMS_P1;PMS_P2;Temp;Humidity;BMP_temperature;BMP_pressure;BME280_temperature;BME280_humidity;BME280_pressure;Samples;Min_cycle;Max_cycle;Signal;HPM_P1;HPM_P2
2022/03/22 00:01:29;;;;;;;20.50;18.05;;;4.30;10.70;;;;;;5034209;28;20175;-71
2022/03/22 00:03:55;;;;;;;19.00;17.60;;;4.30;10.30;;;;;;5033975;28;20187;-70
2022/03/22 00:06:21;;;;;;;18.13;16.60;;;4.30;10.50;;;;;;5032704;28;20558;-70
2022/03/22 00:08:47;;;;;;;19.67;17.97;;;4.30;10.40;;;;;;5033823;28;20175;-70
2022/03/22 00:11:13;;;;;;;20.55;19.05;;;4.20;10.70;;;;;;5033841;28;20402;-71
2022/03/22 00:13:42;;;;;;;22.00;19.90;;;4.20;11.10;;;;;;5033735;28;20206;-71
2022/03/22 00:16:07;;;;;;;21.15;19.40;;;4.10;11.00;;;;;;5033625;28;20586;-71
2022/03/22 00:18:34;;;;;;;17.70;16.40;;;4.10;11.00;;;;;;5033564;28;20179;-71
2022/03/22 00:21:00;;;;;;;21.60;19.70;;;4.10;11.00;;;;;;5033712;28;20777;-71
2022/03/22 00:23:25;;;;;;;19.03;17.40;;;4.10;11.00;;;;;;5032170;28;20201;-71
2022/03/22 00:25:51;;;;;;;20.77;18.67;;;4.00;11.00;;;;;;5033431;28;20239;-70
2022/03/22 00:28:17;;;;;;;21.67;19.70;;;4.00;11.00;;;;;;5033165;28;20174;-70
2022/03/22 00:30:43;;;;;;;19.80;18.10;;;4.00;11.00;;;;;;5033771;28;20176;-70
2022/03/22 00:33:09;;;;;;;20.40;18.92;;;4.00;10.90;;;;;;5032035;28;20187;-71
2022/03/22 00:35:36;;;;;;;19.13;17.67;;;4.00;11.00;;;;;;5032079;28;20297;-70
2022/03/22 00:38:04;;;;;;;20.25;18.48;;;4.00;11.00;;;;;;5031925;28;20413;-70
2022/03/22 00:40:30;;;;;;;20.08;18.38;;;3.90;11.50;;;;;;5033326;28;20237;-71
2022/03/22 00:42:56;;;;;;;19.77;18.17;;;3.90;10.90;;;;;;5032129;28;20639;-71
2022/03/22 00:45:27;;;;;;;21.10;18.95;;;3.90;10.90;;;;;;5031763;28;20211;-71
2022/03/22 00:47:54;;;;;;;21.63;19.73;;;3.90;10.90;;;;;;5031669;28;20183;-71
2022/03/22 00:50:27;;;;;;;18.38;16.48;;;3.80;10.80;;;;;;5033251;28;20263;-70
2022/03/22 00:52:53;;;;;;;23.77;18.75;;;3.80;10.80;;;;;;5033051;28;20179;-70
2022/03/22 00:55:23;;;;;;;19.92;18.13;;;3.80;10.80;;;;;;5032160;28;20680;-70
2022/03/22 00:57:51;;;;;;;19.80;17.88;;;3.70;11.10;;;;;;5032778;28;20171;-71
2022/03/22 01:00:17;;;;;;;19.70;17.90;;;3.70;11.30;;;;;;5032947;28;20184;-70
2022/03/22 01:02:49;;;;;;;18.63;17.20;;;3.70;11.40;;;;;;5032910;28;20183;-70
2022/03/22 01:05:18;;;;;;;20.02;18.30;;;3.60;11.60;;;;;;5032530;28;20744;-71
2022/03/22 01:07:47;;;;;;;20.55;18.85;;;3.60;11.50;;;;;;5031253;28;20183;-69
2022/03/22 01:10:15;;;;;;;18.63;17.08;;;3.50;11.80;;;;;;5032771;28;20454;-70
2022/03/22 01:12:42;;;;;;;19.85;18.02;;;3.50;12.10;;;;;;5032907;28;20174;-70
2022/03/22 01:15:35;;;;;;;20.70;18.67;;;3.40;12.20;;;;;;5032507;28;20306;-70
2022/03/22 01:18:06;;;;;;;19.65;17.80;;;3.30;12.50;;;;;;5031335;28;20179;-71
2022/03/22 01:20:36;;;;;;;20.33;18.88;;;3.20;12.30;;;;;;5032854;28;20171;-70
2022/03/22 01:23:04;;;;;;;20.00;18.45;;;3.20;12.70;;;;;;5032470;28;20183;-70
2022/03/22 01:25:30;;;;;;;18.80;17.30;;;3.10;12.90;;;;;;5032483;28;20233;-70
2022/03/22 01:27:57;;;;;;;19.80;18.15;;;3.00;13.00;;;;;;5032110;28;20171;-70
2022/03/22 01:30:25;;;;;;;19.13;17.50;;;2.90;13.10;;;;;;5032688;28;20188;-71
2022/03/22 01:32:52;;;;;;;18.25;16.65;;;2.90;13.40;;;;;;5031429;28;20229;-70
2022/03/22 01:35:19;;;;;;;18.02;16.63;;;2.90;13.20;;;;;;5032396;28;20277;-71
2022/03/22 01:37:47;;;;;;;20.80;18.73;;;2.90;13.30;;;;;;5031814;28;20179;-71
2022/03/22 01:40:14;;;;;;;19.65;18.05;;;2.80;13.30;;;;;;5032263;28;20674;-70
2022/03/22 01:42:39;;;;;;;20.05;18.35;;;2.80;13.60;;;;;;5032250;28;20184;-70
2022/03/22 01:45:07;;;;;;;17.10;15.90;;;2.80;13.80;;;;;;5032570;28;20203;-70
2022/03/22 01:47:35;;;;;;;20.30;18.20;;;2.70;13.70;;;;;;5032177;28;20171;-70
2022/03/22 01:50:01;;;;;;;19.75;18.25;;;2.60;13.70;;;;;;5032133;28;20518;-70
2022/03/22 01:52:27;;;;;;;19.13;17.08;;;2.60;13.80;;;;;;5030937;28;20190;-70
2022/03/22 01:54:55;;;;;;;20.83;18.87;;;2.60;14.00;;;;;;5032103;28;20198;-69
2022/03/22 01:57:22;;;;;;;21.67;19.80;;;2.50;14.30;;;;;;5031736;28;20179;-69
2022/03/22 01:59:49;;;;;;;20.33;18.40;;;2.50;14.30;;;;;;5032228;28;20203;-71
2022/03/22 02:07:48;;;;;;;19.55;17.95;;;2.40;14.20;;;;;;5031903;28;20190;-71
2022/03/22 02:10:14;;;;;;;20.90;19.10;;;2.30;14.30;;;;;;5032087;28;20208;-70
2022/03/22 02:12:42;;;;;;;21.63;18.75;;;2.30;14.50;;;;;;5032058;28;20167;-70
2022/03/22 02:15:08;;;;;;;18.95;17.40;;;2.30;14.30;;;;;;5031649;28;20231;-70
2022/03/22 02:17:34;;;;;;;20.97;18.97;;;2.30;14.40;;;;;;5031736;28;20618;-70
2022/03/22 02:20:01;;;;;;;18.77;17.17;;;2.20;14.60;;;;;;5032000;28;20822;-70
2022/03/22 02:22:40;;;;;;;20.00;18.52;;;2.20;14.80;;;;;;5030781;28;20655;-71
2022/03/22 02:25:06;;;;;;;19.35;17.75;;;2.20;14.80;;;;;;5030278;28;20300;-70
2022/03/22 02:27:44;;;;;;;18.83;17.35;;;2.10;15.00;;;;;;5031835;28;20174;-71
2022/03/22 02:30:13;;;;;;;21.25;19.02;;;2.10;15.20;;;;;;5031927;28;20201;-70
2022/03/22 02:32:47;;;;;;;19.88;17.88;;;2.10;15.20;;;;;;5031824;28;20245;-70
2022/03/22 02:35:13;;;;;;;19.35;17.50;;;2.10;15.30;;;;;;5031910;28;20233;-70
2022/03/22 02:37:38;;;;;;;18.67;17.07;;;2.00;15.50;;;;;;5030513;28;20183;-70
2022/03/22 02:40:07;;;;;;;20.90;19.10;;;2.00;15.40;;;;;;5032473;28;20592;-70
2022/03/22 02:42:33;;;;;;;18.95;17.25;;;2.00;15.40;;;;;;5031094;28;20190;-70
2022/03/22 02:44:58;;;;;;;17.87;16.27;;;2.00;15.40;;;;;;5030371;28;20574;-70
2022/03/22 02:47:24;;;;;;;19.50;18.07;;;1.90;15.70;;;;;;5031533;28;20175;-70
2022/03/22 02:49:49;;;;;;;19.23;17.57;;;2.00;15.70;;;;;;5033551;28;20198;-71
2022/03/22 02:52:15;;;;;;;18.23;16.53;;;2.00;15.50;;;;;;5035579;28;20258;-70
2022/03/22 02:54:40;;;;;;;18.93;17.50;;;1.90;15.60;;;;;;5035406;28;20606;-71
2022/03/22 02:57:06;;;;;;;20.80;19.00;;;1.90;16.00;;;;;;5035039;28;20190;-70
2022/03/22 02:59:32;;;;;;;18.60;16.80;;;1.90;16.00;;;;;;5035341;28;20195;-70
2022/03/22 03:01:57;;;;;;;19.87;18.07;;;2.00;15.80;;;;;;5033932;28;20228;-71
2022/03/22 03:04:23;;;;;;;19.37;17.20;;;2.10;15.70;;;;;;5035030;28;20193;-71
2022/03/22 03:06:49;;;;;;;18.55;17.15;;;2.10;15.40;;;;;;5034978;28;20181;-71
2022/03/22 03:09:14;;;;;;;18.90;17.27;;;2.00;15.50;;;;;;5033802;28;20643;-70
2022/03/22 03:11:40;;;;;;;20.33;18.20;;;2.10;15.60;;;;;;5035131;28;20554;-71
2022/03/22 03:16:49;;;;;;;20.20;18.50;;;2.00;15.80;;;;;;5034705;28;20548;-70
2022/03/22 03:19:15;;;;;;;20.07;17.90;;;2.00;15.80;;;;;;5035292;28;20179;-70
2022/03/22 03:21:40;;;;;;;19.57;17.67;;;2.00;15.90;;;;;;5035059;28;20647;-70
2022/03/22 03:24:06;;;;;;;19.77;18.07;;;2.00;15.90;;;;;;5034794;28;20346;-71
2022/03/22 03:26:32;;;;;;;19.40;17.50;;;2.00;16.20;;;;;;5034416;28;20234;-70
2022/03/22 03:28:57;;;;;;;17.40;16.13;;;1.90;16.20;;;;;;5034623;28;20177;-70
2022/03/22 03:31:23;;;;;;;21.20;18.97;;;1.90;16.10;;;;;;5034705;28;20181;-71
2022/03/22 03:33:49;;;;;;;17.23;15.63;;;2.00;16.20;;;;;;5033294;28;20183;-71
2022/03/22 03:36:15;;;;;;;19.42;17.67;;;1.90;15.80;;;;;;5034543;28;20643;-71
2022/03/22 03:38:43;;;;;;;19.77;17.80;;;1.90;16.20;;;;;;5034192;28;20201;-70
2022/03/22 03:43:54;;;;;;;17.42;15.95;;;1.80;16.20;;;;;;5034453;28;20178;-70
2022/03/22 03:49:06;;;;;;;19.88;17.73;;;1.80;16.60;;;;;;5034424;28;20185;-70
2022/03/22 03:51:35;;;;;;;17.95;16.52;;;1.90;16.80;;;;;;5034467;28;20232;-71
2022/03/22 03:54:01;;;;;;;17.55;15.90;;;1.90;16.40;;;;;;5034116;28;20277;-71
2022/03/22 03:56:27;;;;;;;17.90;16.23;;;1.80;16.80;;;;;;5033907;28;20264;-71
2022/03/22 03:58:54;;;;;;;19.43;17.53;;;1.70;16.70;;;;;;5032998;28;20186;-71
2022/03/22 04:01:21;;;;;;;18.95;17.33;;;1.70;16.90;;;;;;5033508;28;20247;-71
2022/03/22 04:03:47;;;;;;;18.05;16.30;;;1.70;17.00;;;;;;5034152;28;20167;-70
2022/03/22 04:06:13;;;;;;;18.42;16.60;;;1.70;16.60;;;;;;5033848;28;20260;-70
2022/03/22 04:08:38;;;;;;;18.40;16.73;;;1.70;16.80;;;;;;5032404;28;20177;-70
2022/03/22 04:11:04;;;;;;;20.00;18.00;;;1.80;17.00;;;;;;5034009;28;20181;-70
2022/03/22 04:13:29;;;;;;;18.47;16.63;;;1.80;16.90;;;;;;5034022;28;20178;-71
2022/03/22 04:15:55;;;;;;;22.40;18.97;;;1.80;17.00;;;;;;5034489;28;20272;-70
2022/03/22 04:18:21;;;;;;;17.90;16.00;;;1.80;16.90;;;;;;5034692;28;20260;-71
2022/03/22 04:20:47;;;;;;;18.40;16.93;;;1.80;16.90;;;;;;5034349;28;20214;-70
2022/03/22 04:23:14;;;;;;;17.25;15.75;;;1.70;17.10;;;;;;5033685;28;20580;-71
2022/03/22 04:25:40;;;;;;;20.25;18.40;;;1.70;17.30;;;;;;5032516;28;20693;-71
2022/03/22 04:33:34;;;;;;;18.33;16.65;;;1.70;17.10;;;;;;5033781;28;20180;-71
2022/03/22 04:36:00;;;;;;;17.63;16.03;;;1.60;17.00;;;;;;5033424;28;20201;-71
2022/03/22 04:38:25;;;;;;;17.88;16.15;;;1.50;17.40;;;;;;5033317;28;20417;-70
2022/03/22 04:40:51;;;;;;;19.47;17.60;;;1.40;17.80;;;;;;5033525;28;20246;-70
2022/03/22 04:43:17;;;;;;;17.53;15.83;;;1.50;17.90;;;;;;5033430;28;20186;-69
2022/03/22 04:45:43;;;;;;;19.33;17.37;;;1.50;17.90;;;;;;5033340;28;20205;-71
2022/03/22 04:48:09;;;;;;;17.50;15.68;;;1.60;18.00;;;;;;5033073;28;20643;-70
2022/03/22 04:50:34;;;;;;;18.47;16.83;;;1.60;18.00;;;;;;5033147;28;20186;-71
2022/03/22 04:58:28;;;;;;;17.48;16.08;;;1.60;18.00;;;;;;5032838;28;20665;-70
2022/03/22 05:00:55;;;;;;;20.17;18.03;;;1.60;18.00;;;;;;5033010;28;20217;-71
2022/03/22 05:03:20;;;;;;;19.90;17.17;;;1.50;17.90;;;;;;5033003;28;20637;-71
2022/03/22 05:08:32;;;;;;;24.08;18.13;;;1.50;17.90;;;;;;5032635;28;20307;-71
2022/03/22 05:10:59;;;;;;;16.38;14.82;;;1.30;17.80;;;;;;5032863;28;20166;-70
2022/03/22 05:13:24;;;;;;;19.75;17.70;;;1.30;17.90;;;;;;5030800;28;20186;-70
2022/03/22 05:15:51;;;;;;;19.70;17.67;;;1.20;18.30;;;;;;5062992;22;20711;-72
2022/03/22 05:18:16;;;;;;;18.10;16.50;;;1.30;18.60;;;;;;5012770;28;20181;-71
2022/03/22 05:20:42;;;;;;;18.00;16.50;;;1.30;18.70;;;;;;5028254;28;20185;-72
2022/03/22 05:23:07;;;;;;;18.50;16.70;;;1.20;19.10;;;;;;5011581;28;20536;-71
2022/03/22 05:25:33;;;;;;;22.07;16.73;;;1.10;19.00;;;;;;5012826;28;20202;-70
2022/03/22 05:28:00;;;;;;;17.53;15.93;;;1.10;19.60;;;;;;5013391;28;20222;-69
2022/03/22 05:30:26;;;;;;;18.45;15.63;;;1.20;19.40;;;;;;5013140;28;20183;-71
2022/03/22 05:32:51;;;;;;;19.20;17.20;;;1.30;19.30;;;;;;5013519;28;20169;-68
2022/03/22 05:35:17;;;;;;;18.53;16.83;;;1.40;18.80;;;;;;5013440;28;20252;-70
2022/03/22 05:37:42;;;;;;;17.40;15.70;;;1.50;18.70;;;;;;5011699;28;20336;-70
2022/03/22 05:40:08;;;;;;;17.00;15.30;;;1.50;18.60;;;;;;5012990;28;20186;-71
2022/03/22 05:42:38;;;;;;;18.57;16.70;;;1.40;19.00;;;;;;5011895;28;20189;-72
2022/03/22 05:45:04;;;;;;;18.27;16.50;;;1.40;18.90;;;;;;5013440;28;20472;-72
2022/03/22 05:47:29;;;;;;;18.15;16.55;;;1.50;19.10;;;;;;5011884;28;20556;-72
2022/03/22 05:49:55;;;;;;;18.87;16.97;;;1.60;18.80;;;;;;5013562;28;20179;-72
2022/03/22 05:52:21;;;;;;;21.47;17.10;;;1.70;18.70;;;;;;5011732;28;20232;-67
2022/03/22 05:54:46;;;;;;;19.60;17.07;;;1.70;18.50;;;;;;5013135;28;20198;-72
2022/03/22 05:57:12;;;;;;;17.97;16.20;;;1.80;18.10;;;;;;5013062;28;20601;-70
2022/03/22 05:59:37;;;;;;;21.40;16.17;;;1.90;18.20;;;;;;5011607;28;20546;-70
2022/03/22 06:02:04;;;;;;;18.57;16.50;;;2.00;18.20;;;;;;5011443;28;20185;-69
2022/03/22 06:04:29;;;;;;;18.88;17.10;;;2.10;18.30;;;;;;5010963;28;20244;-68
2022/03/22 06:06:55;;;;;;;18.70;16.83;;;2.10;18.30;;;;;;5012103;28;20171;-69
2022/03/22 06:09:20;;;;;;;20.87;18.40;;;2.30;18.40;;;;;;5012591;28;20645;-71
2022/03/22 06:11:46;;;;;;;24.23;18.33;;;2.80;18.00;;;;;;5012548;28;20180;-69
2022/03/22 06:14:11;;;;;;;16.20;14.90;;;3.30;18.80;;;;;;5012436;28;20183;-69
2022/03/22 06:16:37;;;;;;;17.23;15.70;;;3.80;17.90;;;;;;5012278;28;20238;-70
2022/03/22 06:19:03;;;;;;;17.53;16.07;;;4.40;17.40;;;;;;5012848;28;20176;-69
2022/03/22 06:21:28;;;;;;;19.90;18.30;;;5.00;15.90;;;;;;5012616;28;20180;-69
2022/03/22 06:23:54;;;;;;;19.83;18.10;;;5.50;14.10;;;;;;5013317;28;20181;-68
2022/03/22 06:26:20;;;;;;;21.80;20.20;;;6.00;13.80;;;;;;5015163;28;20264;-68
2022/03/22 06:28:46;;;;;;;21.63;20.00;;;6.50;12.20;;;;;;5016168;28;20221;-68
2022/03/22 06:31:11;;;;;;;21.27;19.60;;;7.10;11.70;;;;;;5016214;28;20414;-70
2022/03/22 06:33:37;;;;;;;22.27;20.27;;;7.60;10.60;;;;;;5009483;28;20187;-70
2022/03/22 06:36:05;;;;;;;20.30;18.80;;;8.10;9.20;;;;;;4999097;28;20235;-70
2022/03/22 06:38:32;;;;;;;23.77;21.73;;;8.60;8.40;;;;;;4996132;28;20414;-69
2022/03/22 06:40:58;;;;;;;23.70;21.90;;;9.10;7.70;;;;;;5013164;28;20427;-69
2022/03/22 06:43:23;;;;;;;25.37;22.80;;;9.60;6.30;;;;;;5016111;28;20411;-70
2022/03/22 06:45:49;;;;;;;23.87;22.00;;;10.00;5.20;;;;;;5015221;28;20480;-69
2022/03/22 06:48:15;;;;;;;23.37;21.50;;;10.40;3.60;;;;;;5025039;28;20185;-70
2022/03/22 06:50:42;;;;;;;23.33;21.60;;;10.60;3.70;;;;;;5022940;28;20239;-70
2022/03/22 06:53:08;;;;;;;22.40;20.80;;;10.80;3.30;;;;;;5016882;28;20433;-70
2022/03/22 06:55:34;;;;;;;21.77;20.30;;;11.00;1.90;;;;;;5029632;28;20450;-68
2022/03/22 06:58:00;;;;;;;21.70;20.30;;;11.10;2.40;;;;;;5034118;28;20187;-68
2022/03/22 07:00:27;;;;;;;21.17;19.67;;;11.10;2.90;;;;;;5035632;28;20525;-69
2022/03/22 07:02:53;;;;;;;21.67;19.70;;;11.20;1.50;;;;;;5035128;28;20447;-69
2022/03/22 07:05:19;;;;;;;23.00;20.80;;;11.00;1.40;;;;;;5035023;28;20558;-69
2022/03/22 07:07:45;;;;;;;22.00;20.40;;;10.60;1.30;;;;;;5021013;28;20571;-69
2022/03/22 07:10:14;;;;;;;23.57;21.80;;;10.50;1.90;;;;;;5013903;28;20176;-69
2022/03/22 07:13:11;;;;;;;23.40;21.40;;;10.20;1.20;;;;;;5015192;28;20190;-68
2022/03/22 07:15:38;;;;;;;22.80;21.10;;;9.70;2.80;;;;;;5010712;28;20470;-69
2022/03/22 07:18:08;;;;;;;23.73;21.70;;;9.40;3.20;;;;;;5014849;28;20422;-68
2022/03/22 07:20:36;;;;;;;22.67;20.87;;;9.00;3.60;;;;;;5015363;28;20774;-68
2022/03/22 07:23:03;;;;;;;22.47;20.77;;;8.70;4.50;;;;;;5015147;28;20433;-70
2022/03/22 07:25:29;;;;;;;23.00;21.27;;;8.40;4.50;;;;;;5014962;28;20710;-70
2022/03/22 07:27:55;;;;;;;23.60;21.90;;;8.10;8.30;;;;;;5011796;28;20836;-70
2022/03/22 07:30:21;;;;;;;24.30;22.10;;;8.10;6.60;;;;;;4996188;28;20424;-68
2022/03/22 07:32:46;;;;;;;22.00;20.50;;;8.10;5.50;;;;;;4995252;28;20184;-69
2022/03/22 07:35:14;;;;;;;25.23;22.97;;;8.00;5.80;;;;;;4999193;28;20525;-70
2022/03/22 07:37:40;;;;;;;23.50;21.83;;;7.90;5.20;;;;;;5018555;28;20435;-73
2022/03/22 07:40:08;;;;;;;23.87;22.00;;;7.80;5.60;;;;;;5015534;28;20803;-69
2022/03/22 07:42:34;;;;;;;22.20;20.70;;;7.80;5.60;;;;;;5016020;28;20504;-70
2022/03/22 07:45:03;;;;;;;22.97;21.27;;;7.70;5.80;;;;;;5014975;28;20498;-69
2022/03/22 07:47:29;;;;;;;23.40;21.50;;;7.80;6.50;;;;;;5015648;28;20474;-69
2022/03/22 07:53:01;;;;;;;23.13;21.40;;;8.10;7.10;;;;;;5015980;28;20218;-70
2022/03/22 07:55:29;;;;;;;24.60;22.40;;;8.20;5.70;;;;;;5014868;28;20538;-69
2022/03/22 07:57:57;;;;;;;24.40;21.67;;;8.10;4.80;;;;;;5012889;28;20415;-69
2022/03/22 08:00:23;;;;;;;23.37;21.50;;;8.20;5.60;;;;;;5014156;28;20438;-69
2022/03/22 08:02:57;;;;;;;24.53;22.23;;;8.30;4.90;;;;;;5014326;28;20418;-69
2022/03/22 08:05:23;;;;;;;23.03;20.80;;;8.40;5.40;;;;;;5012782;28;20467;-69
2022/03/22 08:07:49;;;;;;;20.67;19.20;;;8.60;5.00;;;;;;5013730;28;20458;-69
2022/03/22 08:10:16;;;;;;;24.97;22.83;;;8.70;5.10;;;;;;5015027;28;20788;-72
2022/03/22 08:12:41;;;;;;;22.97;21.30;;;8.80;5.20;;;;;;5015446;28;20522;-73
2022/03/22 08:15:09;;;;;;;22.30;20.43;;;8.90;5.20;;;;;;5014865;28;20921;-72
2022/03/22 08:17:39;;;;;;;22.67;20.73;;;9.00;5.20;;;;;;5014306;28;20426;-73
2022/03/22 08:20:09;;;;;;;23.33;21.37;;;9.20;5.50;;;;;;5014539;28;20420;-73
2022/03/22 08:22:54;;;;;;;22.57;20.80;;;9.40;4.50;;;;;;5014345;28;20461;-73
2022/03/22 08:25:26;;;;;;;23.63;21.47;;;9.60;4.60;;;;;;4994344;28;20919;-76
2022/03/22 08:27:52;;;;;;;22.77;21.10;;;9.70;3.50;;;;;;4994074;28;20431;-74
2022/03/22 08:30:21;;;;;;;23.90;22.00;;;9.90;3.70;;;;;;4992430;28;20980;-74
2022/03/22 08:32:50;;;;;;;24.37;22.40;;;10.00;2.60;;;;;;4993072;28;20854;-74
2022/03/22 08:35:17;;;;;;;24.43;22.60;;;10.10;3.00;;;;;;4993040;28;20441;-73
2022/03/22 08:37:43;;;;;;;28.93;20.20;;;9.80;2.80;;;;;;4993709;28;20741;-74
2022/03/22 08:40:10;;;;;;;22.77;21.13;;;9.90;3.60;;;;;;4993413;28;20469;-75
2022/03/22 08:42:37;;;;;;;22.23;20.57;;;9.90;3.90;;;;;;4993849;28;20541;-74
2022/03/22 08:45:06;;;;;;;22.50;20.90;;;10.00;3.10;;;;;;4993931;28;21017;-74
2022/03/22 08:47:34;;;;;;;23.20;21.43;;;10.20;2.30;;;;;;4994099;28;20418;-74
2022/03/22 08:50:00;;;;;;;23.57;21.70;;;10.30;2.50;;;;;;4993803;28;20422;-73
2022/03/22 08:52:26;;;;;;;23.17;21.57;;;10.40;2.70;;;;;;4993875;28;20416;-74
2022/03/22 08:54:51;;;;;;;23.70;22.00;;;10.50;2.20;;;;;;4992314;28;20233;-73
2022/03/22 08:57:18;;;;;;;24.00;22.07;;;10.50;1.80;;;;;;4993610;28;20192;-74
2022/03/22 08:59:43;;;;;;;22.97;21.00;;;10.50;1.90;;;;;;4993702;28;20207;-73
2022/03/22 09:02:09;;;;;;;20.60;19.13;;;10.60;2.00;;;;;;4993532;28;20417;-75
2022/03/22 09:07:19;;;;;;;23.33;21.40;;;10.70;1.20;;;;;;4993853;28;20422;-72
2022/03/22 09:09:45;;;;;;;21.37;20.07;;;10.80;1.30;;;;;;4993648;28;20417;-73
2022/03/22 09:12:12;;;;;;;23.50;21.67;;;10.80;1.30;;;;;;4993547;28;20185;-74
2022/03/22 09:14:38;;;;;;;26.90;24.70;;;10.90;1.00;;;;;;4993397;28;20219;-74
2022/03/22 09:17:05;;;;;;;21.17;19.57;;;10.80;1.00;;;;;;4993206;28;20398;-74
2022/03/22 09:19:30;;;;;;;27.90;23.53;;;10.90;1.30;;;;;;4994214;28;20505;-74
2022/03/22 09:21:56;;;;;;;22.90;21.10;;;11.10;1.40;;;;;;4993492;28;20410;-74
2022/03/22 09:24:22;;;;;;;23.67;21.70;;;11.30;1.90;;;;;;4993309;28;20474;-74
2022/03/22 09:26:47;;;;;;;23.47;21.83;;;11.40;2.70;;;;;;4993127;28;20222;-73
2022/03/22 09:29:13;;;;;;;24.23;22.13;;;11.50;2.80;;;;;;4993269;28;20200;-72
2022/03/22 09:31:40;;;;;;;24.87;22.77;;;11.60;1.20;;;;;;4993159;28;20579;-74
2022/03/22 09:34:06;;;;;;;24.27;22.53;;;11.70;1.00;;;;;;4993207;28;20665;-74
2022/03/22 09:36:32;;;;;;;25.43;23.27;;;11.90;1.80;;;;;;4993056;28;20436;-74
2022/03/22 09:38:58;;;;;;;23.17;21.47;;;11.90;1.00;;;;;;4991811;28;20184;-73
2022/03/22 09:41:26;;;;;;;24.33;22.30;;;11.90;1.00;;;;;;4993409;28;20412;-73
2022/03/22 09:43:53;;;;;;;25.70;23.33;;;11.90;1.00;;;;;;4992919;28;20779;-74
2022/03/22 09:46:19;;;;;;;24.17;22.17;;;11.80;1.00;;;;;;4992671;28;21010;-72
2022/03/22 09:48:47;;;;;;;22.43;20.87;;;11.90;1.00;;;;;;4992716;28;21029;-72
2022/03/22 09:53:58;;;;;;;24.73;22.90;;;12.10;1.00;;;;;;4993300;28;20491;-74
2022/03/22 09:56:29;;;;;;;22.00;20.30;;;12.30;1.00;;;;;;4992610;28;20952;-74
2022/03/22 09:58:55;;;;;;;25.10;22.57;;;12.40;1.00;;;;;;4992262;28;20427;-74
2022/03/22 10:01:21;;;;;;;23.40;21.60;;;12.40;1.00;;;;;;4992704;28;20434;-75
2022/03/22 10:04:00;;;;;;;25.17;23.00;;;12.40;1.00;;;;;;4992751;28;20661;-75
2022/03/22 10:06:27;;;;;;;25.00;22.90;;;12.40;1.00;;;;;;4991468;28;20475;-74
2022/03/22 10:08:53;;;;;;;24.70;22.80;;;12.40;1.00;;;;;;4992320;28;20404;-75
2022/03/22 10:11:18;;;;;;;25.87;23.60;;;12.60;1.00;;;;;;4992654;28;20411;-74
2022/03/22 10:13:55;;;;;;;22.97;21.23;;;12.50;1.00;;;;;;4993138;28;20685;-74
2022/03/22 10:16:21;;;;;;;24.50;22.30;;;12.50;1.00;;;;;;4991694;28;20212;-73
2022/03/22 10:18:48;;;;;;;25.77;23.60;;;12.50;1.00;;;;;;4992712;28;20513;-74
2022/03/22 10:21:13;;;;;;;24.87;22.93;;;12.70;1.00;;;;;;4992802;28;20416;-74
2022/03/22 10:23:55;;;;;;;25.37;23.23;;;12.60;1.00;;;;;;4992764;28;20419;-74
2022/03/22 10:26:30;;;;;;;23.93;21.97;;;12.70;1.00;;;;;;4992676;28;20212;-75
2022/03/22 10:28:56;;;;;;;25.83;23.43;;;12.80;1.00;;;;;;4992982;28;20402;-74
2022/03/22 10:31:40;;;;;;;23.47;21.83;;;12.90;1.00;;;;;;4992975;28;20954;-74
2022/03/22 10:34:07;;;;;;;25.20;23.00;;;13.10;1.00;;;;;;4991484;28;20416;-75
2022/03/22 10:36:37;;;;;;;25.20;22.77;;;13.10;1.00;;;;;;4992471;28;20865;-74
2022/03/22 10:39:11;;;;;;;25.37;23.40;;;13.20;1.00;;;;;;4992677;28;20502;-74
2022/03/22 10:41:45;;;;;;;24.00;22.20;;;13.30;1.00;;;;;;4992414;28;20424;-73
2022/03/22 10:44:14;;;;;;;22.83;20.80;;;13.40;1.00;;;;;;4992379;28;20420;-72
2022/03/22 10:46:44;;;;;;;24.57;22.60;;;13.50;1.00;;;;;;4991251;28;20554;-74
2022/03/22 10:49:14;;;;;;;24.93;22.97;;;13.60;1.00;;;;;;4992444;28;20920;-74
2022/03/22 10:51:45;;;;;;;26.50;24.27;;;13.70;1.00;;;;;;4992626;28;20510;-74
2022/03/22 10:54:17;;;;;;;23.93;22.20;;;13.70;1.00;;;;;;4992455;28;20417;-75
2022/03/22 10:56:57;;;;;;;25.77;23.47;;;13.80;1.00;;;;;;5007512;28;20515;-73
2022/03/22 10:59:25;;;;;;;24.73;22.57;;;13.90;1.00;;;;;;4992534;28;20417;-75
2022/03/22 11:01:52;;;;;;;25.63;23.30;;;13.80;1.00;;;;;;4992299;28;20454;-74
2022/03/22 11:04:21;;;;;;;25.10;23.23;;;14.00;1.00;;;;;;4991145;28;20458;-75
2022/03/22 11:06:48;;;;;;;24.27;22.67;;;13.80;1.00;;;;;;4992209;28;20487;-74
2022/03/22 11:09:15;;;;;;;26.20;23.23;;;13.90;1.00;;;;;;4992249;28;20420;-72
2022/03/22 11:11:41;;;;;;;22.80;20.90;;;14.10;1.00;;;;;;4995444;28;21028;-74
2022/03/22 11:14:07;;;;;;;26.63;24.13;;;14.20;1.00;;;;;;4996053;28;20791;-73
2022/03/22 11:16:35;;;;;;;25.80;23.93;;;14.30;1.00;;;;;;5029370;23;20498;-71
2022/03/22 11:19:03;;;;;;;24.70;22.67;;;14.40;1.00;;;;;;5015159;28;20831;-70
2022/03/22 11:21:30;;;;;;;22.40;20.90;;;14.30;1.00;;;;;;5015197;28;20399;-70
2022/03/22 11:24:12;;;;;;;27.77;25.33;;;14.50;1.00;;;;;;5014984;28;20398;-70
2022/03/22 11:26:47;;;;;;;26.10;24.20;;;14.60;1.00;;;;;;4997066;28;20548;-71
2022/03/22 11:29:19;;;;;;;25.53;23.50;;;14.60;1.00;;;;;;4997385;28;20682;-70
2022/03/22 11:34:09;;;;;;;26.80;24.50;;;14.60;1.00;;;;;;4997333;28;20421;-71
2022/03/22 11:34:35;;;;;;;24.30;22.60;;;14.60;1.00;;;;;;5014607;28;20433;-71
2022/03/22 11:37:02;;;;;;;23.07;21.47;;;14.60;1.00;;;;;;5014646;28;20493;-70
2022/03/22 11:42:25;;;;;;;24.20;22.60;;;14.80;1.00;;;;;;5014991;28;20410;-71
2022/03/22 11:45:17;;;;;;;24.83;22.97;;;14.90;1.00;;;;;;5014520;28;20443;-71
2022/03/22 11:47:44;;;;;;;26.43;24.13;;;15.00;1.00;;;;;;4993570;28;20519;-71
2022/03/22 11:50:16;;;;;;;24.97;22.57;;;15.00;1.00;;;;;;5014843;28;20813;-71
2022/03/22 11:52:43;;;;;;;23.17;21.47;;;15.10;1.00;;;;;;5014651;28;20429;-71
2022/03/22 11:55:16;;;;;;;26.93;24.67;;;15.30;1.00;;;;;;5014445;28;20442;-71
2022/03/22 11:58:08;;;;;;;24.77;22.63;;;15.40;1.00;;;;;;4996681;28;20939;-71
2022/03/22 12:00:47;;;;;;;23.30;21.73;;;15.40;1.00;;;;;;5014558;28;20424;-71
2022/03/22 12:03:15;;;;;;;24.43;22.43;;;15.50;1.00;;;;;;4996969;28;20414;-71
2022/03/22 12:05:41;;;;;;;23.87;22.13;;;15.40;1.00;;;;;;5014224;28;20455;-71
2022/03/22 12:08:08;;;;;;;24.80;23.00;;;15.60;1.00;;;;;;5014079;28;20419;-71
2022/03/22 12:10:34;;;;;;;22.50;20.93;;;15.60;1.00;;;;;;5014218;28;20468;-70
2022/03/22 12:13:00;;;;;;;22.33;20.10;;;15.60;1.00;;;;;;5014105;28;20818;-71
2022/03/22 12:15:26;;;;;;;24.40;22.40;;;15.50;1.00;;;;;;5013910;28;20212;-71
2022/03/22 12:17:53;;;;;;;23.80;21.83;;;15.50;1.00;;;;;;4996332;28;20183;-70
2022/03/22 12:20:21;;;;;;;24.93;23.00;;;15.50;1.00;;;;;;5014067;28;20446;-71
2022/03/22 12:22:50;;;;;;;21.53;19.97;;;15.60;1.00;;;;;;4996307;28;20796;-71
2022/03/22 12:25:24;;;;;;;23.33;21.50;;;15.70;1.00;;;;;;5013861;28;20466;-71
2022/03/22 12:28:09;;;;;;;22.33;20.57;;;15.70;1.00;;;;;;4996001;28;21108;-71
2022/03/22 12:30:40;;;;;;;20.87;19.57;;;15.60;1.00;;;;;;5013872;28;20418;-71
2022/03/22 12:33:14;;;;;;;21.67;20.23;;;15.60;1.00;;;;;;4996088;28;20422;-70
2022/03/22 12:35:43;;;;;;;22.50;20.73;;;15.60;1.00;;;;;;5013656;28;20442;-69
2022/03/22 12:38:09;;;;;;;22.73;21.13;;;15.70;1.00;;;;;;5013395;28;20418;-70
2022/03/22 12:40:35;;;;;;;22.00;20.57;;;15.80;1.00;;;;;;5013616;28;20415;-71
2022/03/22 12:43:03;;;;;;;19.40;18.10;;;15.90;1.00;;;;;;5013409;28;20418;-70
2022/03/22 12:45:31;;;;;;;24.13;21.93;;;15.70;1.00;;;;;;5013460;28;20454;-71
2022/03/22 12:47:58;;;;;;;21.13;19.23;;;15.70;1.00;;;;;;5013329;28;20429;-71
2022/03/22 12:50:25;;;;;;;23.70;22.17;;;15.60;1.00;;;;;;4995801;28;20510;-70
2022/03/22 12:52:51;;;;;;;23.50;21.23;;;15.70;1.00;;;;;;4995816;28;20422;-70
2022/03/22 12:55:18;;;;;;;23.60;21.60;;;15.90;1.00;;;;;;5013310;28;20431;-70
2022/03/22 12:57:46;;;;;;;20.10;18.87;;;16.10;1.00;;;;;;5012932;28;20411;-71
2022/03/22 13:00:37;;;;;;;22.20;20.90;;;16.20;1.00;;;;;;5013230;28;20419;-71
2022/03/22 13:03:19;;;;;;;22.37;20.63;;;16.10;1.00;;;;;;5013277;28;20439;-71
2022/03/22 13:05:47;;;;;;;22.07;20.17;;;16.10;1.00;;;;;;4995501;28;20486;-71
2022/03/22 13:08:13;;;;;;;23.10;21.27;;;16.20;1.00;;;;;;5012810;28;20425;-69
2022/03/22 13:13:22;;;;;;;23.47;21.47;;;16.40;1.00;;;;;;5013088;28;20918;-71
2022/03/22 13:15:52;;;;;;;22.60;20.97;;;16.40;1.00;;;;;;5012830;28;20450;-69
2022/03/22 13:18:20;;;;;;;23.67;21.37;;;16.40;1.00;;;;;;5013197;28;20179;-71
2022/03/22 13:20:46;;;;;;;21.40;19.80;;;16.30;1.00;;;;;;5013113;28;20418;-71
2022/03/22 13:23:15;;;;;;;22.47;21.00;;;16.40;1.00;;;;;;5012960;28;20411;-71